Etusivu
METAR-TAF:

METAR-TAF

Lentoasemat :

Tozeur, Tunisia

Leveyspiiri: 33-55N, Pituuspiiri: 008-06E, korkeus merenpinnasta: 87 m

Tämänhetkinen sää

Tämä raportti tehtiin 43 minuuttia sitten, kello 22.00 UTC
Tuuli 17 kn idästä/koillisesta
Lämpötila 27°C
Kosteus 24%
Ilmanpaine 1012 hPa
Näkyvyys: 6000 m

METAR: DTTZ 232200Z 07017KT 6000 NSC 27/05 Q1012

Aika: 23:43 (22:43 UTC)

Sääennuste

Tämä raportti tehtiin 5 tuntia ja 43 minuuttia sitten, kello 17.00 UTC
Ennuste voimassa 23. päivästä klo 18 UTC - 24. päivään klo 18 UTC
Tuuli 24 kn idästä
Näkyvyys: 3000 m
hiekkaa
Ajoittain
24. päivästä klo 00 UTC - 24. päivään klo 18 UTC
Tuuli 25 kn idästä/koillisesta puuskistuen 40 kn:hen
Näkyvyys: 1500 m
hiekkaa,

TAF: DTTZ 231700Z 2318/2418 08024KT 3000 SA NSC TEMPO 2400/2418 06025G40KT 1500 SA

Säähavainnot ja -ennusteet yli 4000 lentoasemalta (METAR- ja TAF-raportit).

Käytössä olevat sääasemat on merkitty karttaan keltaisilla ja punaisilla pisteillä.

Aseta hiiri pisteen päälle nähdäksesi sääaseman nimen.

Klikkaa sitten nähdäksesi säähavainnot ja -ennusteet.

Kartan vaihtaminen: klikkaa mustalla rastilla varustettuja vihreitä pisteitä, niin voit zoomata sisään; viivalla varustettua vihreää pistettä, niin voit zoomata ulos tai vihreitä nuolia, niin pääset viereisille kartoille.


METAR-TAF: